Time;durP1;ratioP1;P1;durP2;ratioP2;P2;SDS_P1;SDS_P2;PMS_P1;PMS_P2;Temp;Humidity;BMP_temperature;BMP_pressure;BME280_temperature;BME280_humidity;BME280_pressure;Samples;Min_cycle;Max_cycle;Signal;HPM_P1;HPM_P2
2023/05/20 00:02:48;;;;;;;4.63;4.33;;;11.90;64.00;;;;;;6242988;28;21249;-83
2023/05/20 00:05:53;;;;;;;4.70;4.50;;;11.80;64.00;;;;;;6234433;28;20250;-85
2023/05/20 00:08:58;;;;;;;5.53;5.03;;;11.80;64.00;;;;;;6241356;28;20234;-84
2023/05/20 00:12:01;;;;;;;4.57;4.40;;;11.80;64.20;;;;;;6238813;28;20310;-86
2023/05/20 00:15:05;;;;;;;5.40;5.03;;;11.70;64.10;;;;;;6220668;28;20731;-84
2023/05/20 00:18:08;;;;;;;5.10;4.70;;;11.70;64.50;;;;;;6219531;28;20242;-84
2023/05/20 00:21:13;;;;;;;4.67;4.37;;;11.70;64.50;;;;;;6223157;28;20235;-87
2023/05/20 00:24:16;;;;;;;5.07;4.77;;;11.70;64.50;;;;;;6219668;28;20253;-82
2023/05/20 00:27:19;;;;;;;4.90;4.60;;;11.60;64.80;;;;;;6234280;28;20768;-83
2023/05/20 00:30:22;;;;;;;5.00;4.80;;;11.50;64.70;;;;;;6242327;28;20398;-84
2023/05/20 00:33:25;;;;;;;4.87;4.30;;;11.50;64.90;;;;;;6244424;28;20274;-83
2023/05/20 00:36:30;;;;;;;4.77;4.60;;;11.50;65.10;;;;;;6229343;28;20237;-83
2023/05/20 00:39:33;;;;;;;5.47;5.03;;;11.50;65.30;;;;;;6227924;28;20247;-82
2023/05/20 00:42:36;;;;;;;5.30;5.00;;;11.40;65.50;;;;;;6236345;28;20241;-82
2023/05/20 00:45:40;;;;;;;5.33;5.03;;;11.40;66.00;;;;;;6245493;28;20235;-84
2023/05/20 00:48:44;;;;;;;5.30;4.90;;;11.30;66.20;;;;;;6256631;28;20237;-84
2023/05/20 00:51:49;;;;;;;5.33;4.87;;;11.30;66.60;;;;;;6233276;28;20239;-84
2023/05/20 00:54:53;;;;;;;5.27;4.70;;;11.20;66.80;;;;;;6230359;28;20673;-85
2023/05/20 00:57:56;;;;;;;5.97;5.10;;;11.10;67.00;;;;;;6235011;28;20836;-83
2023/05/20 01:00:59;;;;;;;5.20;4.73;;;11.10;67.20;;;;;;6234145;28;20247;-84
2023/05/20 01:04:03;;;;;;;5.23;4.97;;;11.10;67.30;;;;;;6224548;28;21299;-81
2023/05/20 01:07:07;;;;;;;5.63;5.13;;;11.10;67.30;;;;;;6233355;28;20239;-83
2023/05/20 01:10:11;;;;;;;5.40;5.00;;;11.10;67.50;;;;;;6233325;28;20239;-84
2023/05/20 01:13:19;;;;;;;5.40;5.10;;;11.10;67.60;;;;;;6233160;28;20239;-84
2023/05/20 01:16:24;;;;;;;5.70;5.27;;;11.10;67.60;;;;;;6232376;28;20236;-84
2023/05/20 01:19:35;;;;;;;5.60;5.30;;;11.10;67.70;;;;;;6236609;28;20746;-83
2023/05/20 01:22:47;;;;;;;5.67;5.37;;;11.00;68.10;;;;;;6234988;28;20253;-83
2023/05/20 01:25:50;;;;;;;6.00;5.50;;;10.90;68.50;;;;;;6223651;28;20243;-83
2023/05/20 01:28:56;;;;;;;5.73;5.33;;;10.90;68.70;;;;;;6230143;28;20594;-84
2023/05/20 01:32:01;;;;;;;5.07;4.73;;;10.90;68.50;;;;;;6242151;28;20254;-84
2023/05/20 01:35:08;;;;;;;5.50;5.10;;;10.90;68.50;;;;;;6234108;28;20324;-82
2023/05/20 01:38:13;;;;;;;5.93;5.53;;;10.90;68.70;;;;;;6241317;28;20237;-81
2023/05/20 01:41:17;;;;;;;5.63;5.13;;;10.80;68.80;;;;;;6264703;28;20317;-83
2023/05/20 01:44:20;;;;;;;5.67;5.27;;;10.80;68.90;;;;;;6234394;28;20500;-83
2023/05/20 01:47:23;;;;;;;5.17;4.87;;;10.80;68.90;;;;;;6241262;28;20861;-82
2023/05/20 01:50:27;;;;;;;5.47;5.03;;;10.70;69.00;;;;;;6250538;28;20242;-82
2023/05/20 01:53:31;;;;;;;5.30;5.00;;;10.80;69.00;;;;;;6237483;28;20234;-83
2023/05/20 01:56:34;;;;;;;4.90;4.70;;;10.80;68.90;;;;;;6244879;28;20292;-83
2023/05/20 01:59:38;;;;;;;5.63;5.23;;;10.80;69.10;;;;;;6240671;28;20779;-82
2023/05/20 02:02:41;;;;;;;5.30;4.90;;;10.70;69.20;;;;;;6238001;28;20741;-83
2023/05/20 02:05:45;;;;;;;6.47;5.87;;;10.70;69.30;;;;;;6240606;28;20253;-82
2023/05/20 02:08:49;;;;;;;5.80;5.50;;;10.70;69.60;;;;;;6237563;28;20254;-83
2023/05/20 02:11:52;;;;;;;5.97;5.47;;;10.80;69.30;;;;;;6268275;28;20493;-83
2023/05/20 02:14:55;;;;;;;6.07;5.57;;;10.80;69.40;;;;;;6262224;28;20222;-81
2023/05/20 02:17:59;;;;;;;4.90;4.80;;;10.70;69.50;;;;;;6268777;28;20238;-86
2023/05/20 02:21:02;;;;;;;6.50;5.93;;;10.70;69.40;;;;;;6244613;28;20234;-81
2023/05/20 02:24:07;;;;;;;5.77;5.37;;;10.70;69.60;;;;;;6256407;28;20228;-84
2023/05/20 02:27:11;;;;;;;5.60;5.30;;;10.70;69.60;;;;;;6235531;28;20231;-85
2023/05/20 02:30:16;;;;;;;5.23;4.90;;;10.70;69.50;;;;;;6231760;28;20254;-83
2023/05/20 02:33:19;;;;;;;5.70;5.23;;;10.60;69.60;;;;;;6234466;28;20230;-83
2023/05/20 02:36:22;;;;;;;6.57;5.67;;;10.70;69.60;;;;;;6239935;28;20242;-83
2023/05/20 02:39:27;;;;;;;5.97;5.50;;;10.60;69.90;;;;;;6250499;28;20226;-83
2023/05/20 02:42:30;;;;;;;5.87;5.40;;;10.60;69.90;;;;;;6248421;28;20248;-84
2023/05/20 02:45:36;;;;;;;5.97;5.57;;;10.60;69.90;;;;;;6248761;28;20257;-84
2023/05/20 02:48:39;;;;;;;4.97;4.67;;;10.60;69.80;;;;;;6233852;28;20291;-85
2023/05/20 02:51:42;;;;;;;5.57;5.17;;;10.60;69.70;;;;;;6247873;28;20246;-85
2023/05/20 02:54:47;;;;;;;5.80;5.50;;;10.60;69.90;;;;;;6239159;28;20242;-85
2023/05/20 02:57:50;;;;;;;6.10;5.60;;;10.70;70.00;;;;;;6227193;28;20246;-85
2023/05/20 03:00:55;;;;;;;5.90;5.67;;;10.70;70.00;;;;;;6246530;28;20438;-85
2023/05/20 03:03:58;;;;;;;6.30;5.80;;;10.70;70.00;;;;;;6236348;28;20235;-83
2023/05/20 03:07:01;;;;;;;5.10;4.80;;;10.70;69.80;;;;;;6246114;28;20234;-83
2023/05/20 03:10:08;;;;;;;6.43;5.87;;;10.80;69.80;;;;;;6234957;28;20257;-84
2023/05/20 03:13:11;;;;;;;6.10;5.63;;;10.80;69.80;;;;;;6241760;28;20253;-84
2023/05/20 03:16:15;;;;;;;6.93;6.20;;;10.80;69.80;;;;;;6245988;28;20246;-84
2023/05/20 03:19:18;;;;;;;6.17;5.87;;;10.90;69.80;;;;;;6237113;28;20238;-84
2023/05/20 03:22:22;;;;;;;6.50;6.00;;;10.90;69.50;;;;;;6220965;28;20740;-84
2023/05/20 03:25:27;;;;;;;6.10;5.57;;;10.90;69.50;;;;;;6255931;28;20284;-84
2023/05/20 03:28:30;;;;;;;5.40;5.20;;;10.90;69.50;;;;;;6254486;28;20238;-84
2023/05/20 03:31:34;;;;;;;6.50;5.90;;;11.00;69.60;;;;;;6236376;28;20238;-80
2023/05/20 03:34:37;;;;;;;6.23;5.73;;;11.00;69.40;;;;;;6242494;28;20230;-79
2023/05/20 03:37:40;;;;;;;6.60;6.00;;;11.10;69.20;;;;;;6234684;28;20258;-78
2023/05/20 03:40:44;;;;;;;6.90;6.40;;;11.10;68.80;;;;;;6238037;28;20318;-79
2023/05/20 03:43:48;;;;;;;6.77;6.23;;;11.10;68.90;;;;;;6229046;28;20312;-81
2023/05/20 03:46:51;;;;;;;6.67;6.10;;;11.10;68.90;;;;;;6228231;28;20240;-78
2023/05/20 03:49:54;;;;;;;6.40;6.00;;;11.10;69.10;;;;;;6233515;28;20860;-81
2023/05/20 03:52:57;;;;;;;5.80;5.50;;;11.10;68.90;;;;;;6242115;28;20243;-81
2023/05/20 03:56:02;;;;;;;6.10;5.70;;;11.10;68.80;;;;;;6239296;28;20239;-78
2023/05/20 03:59:05;;;;;;;6.00;5.40;;;11.10;69.00;;;;;;6227025;28;20247;-78
2023/05/20 04:02:09;;;;;;;7.20;6.10;;;11.10;69.00;;;;;;6239954;28;20239;-81
2023/05/20 04:05:12;;;;;;;5.90;5.57;;;11.10;69.20;;;;;;6241148;28;20252;-81
2023/05/20 04:08:18;;;;;;;5.83;5.43;;;11.10;68.90;;;;;;6236187;28;20232;-80
2023/05/20 04:11:23;;;;;;;5.80;5.40;;;11.10;69.00;;;;;;6231983;28;20238;-80
2023/05/20 04:14:26;;;;;;;5.97;5.60;;;11.20;68.70;;;;;;6229606;28;20852;-80
2023/05/20 04:17:29;;;;;;;6.17;5.60;;;11.30;68.70;;;;;;6220390;28;20238;-81
2023/05/20 04:20:33;;;;;;;6.53;5.87;;;11.30;68.50;;;;;;6232362;28;20308;-80
2023/05/20 04:23:36;;;;;;;6.37;5.87;;;11.20;68.80;;;;;;6241892;28;20242;-79
2023/05/20 04:26:41;;;;;;;6.60;6.03;;;11.20;69.00;;;;;;6243469;28;20658;-80
2023/05/20 04:29:44;;;;;;;6.63;6.10;;;11.30;68.60;;;;;;6223300;28;20231;-80
2023/05/20 04:32:49;;;;;;;6.40;6.00;;;11.30;68.70;;;;;;6232917;28;20312;-79
2023/05/20 04:35:57;;;;;;;5.63;5.33;;;11.30;68.90;;;;;;6234024;28;20851;-81
2023/05/20 04:39:03;;;;;;;6.80;6.30;;;11.30;68.90;;;;;;6235367;28;20312;-80
2023/05/20 04:42:09;;;;;;;6.73;6.20;;;11.40;68.80;;;;;;6235844;28;20253;-81
2023/05/20 04:45:13;;;;;;;6.17;5.77;;;11.40;68.70;;;;;;6240177;28;20280;-79
2023/05/20 04:48:16;;;;;;;8.50;6.10;;;11.40;68.80;;;;;;6235686;28;20227;-78
2023/05/20 04:51:20;;;;;;;7.00;6.30;;;11.40;68.80;;;;;;6229476;28;20247;-80
2023/05/20 04:54:23;;;;;;;6.37;5.80;;;11.40;68.80;;;;;;6225452;28;20841;-80
2023/05/20 04:57:28;;;;;;;6.93;6.13;;;11.50;68.80;;;;;;6230399;28;20235;-78
2023/05/20 05:00:31;;;;;;;6.80;6.30;;;11.50;69.00;;;;;;6230450;28;20255;-79
2023/05/20 05:03:34;;;;;;;5.90;5.60;;;11.50;68.90;;;;;;6233300;28;20327;-80
2023/05/20 05:06:39;;;;;;;6.40;5.90;;;11.50;68.80;;;;;;6240636;28;20235;-80
2023/05/20 05:09:42;;;;;;;6.90;6.17;;;11.60;68.90;;;;;;6242672;28;20245;-81
2023/05/20 05:12:48;;;;;;;7.23;6.63;;;11.50;69.10;;;;;;6232460;28;20840;-79
2023/05/20 05:15:58;;;;;;;7.00;6.27;;;11.50;69.20;;;;;;6222936;28;20401;-80
2023/05/20 05:19:02;;;;;;;6.93;6.43;;;11.50;69.20;;;;;;6235349;28;20305;-78
2023/05/20 05:22:05;;;;;;;7.00;6.30;;;11.60;69.30;;;;;;6237237;28;20322;-77
2023/05/20 05:25:10;;;;;;;7.10;6.60;;;11.60;69.30;;;;;;6232009;28;20328;-80
2023/05/20 05:28:14;;;;;;;7.87;7.03;;;11.70;69.10;;;;;;6239074;28;20246;-80
2023/05/20 05:31:17;;;;;;;7.33;6.63;;;11.70;69.30;;;;;;6216736;28;20397;-77
2023/05/20 05:34:21;;;;;;;6.80;6.30;;;11.70;69.40;;;;;;6226246;28;20246;-79
2023/05/20 05:37:24;;;;;;;7.90;6.50;;;11.80;69.00;;;;;;6217919;28;20262;-78
2023/05/20 05:40:28;;;;;;;7.17;6.67;;;11.90;69.00;;;;;;6231169;28;20863;-80
2023/05/20 05:43:32;;;;;;;6.97;6.47;;;11.90;69.00;;;;;;6242305;28;20257;-80
2023/05/20 05:46:36;;;;;;;6.77;5.97;;;11.90;69.10;;;;;;6231728;28;20233;-80
2023/05/20 05:49:41;;;;;;;7.43;6.73;;;11.90;69.30;;;;;;6234920;28;21611;-79
2023/05/20 05:52:44;;;;;;;9.07;6.07;;;11.90;69.50;;;;;;6230525;28;20234;-79
2023/05/20 05:55:47;;;;;;;7.40;6.90;;;11.90;69.60;;;;;;6224311;28;20307;-79
2023/05/20 05:58:51;;;;;;;6.67;6.03;;;12.00;69.40;;;;;;6229237;28;20241;-81
2023/05/20 06:01:55;;;;;;;7.97;6.63;;;12.10;69.10;;;;;;6234641;28;20254;-80
2023/05/20 06:04:58;;;;;;;6.43;6.00;;;12.30;68.90;;;;;;6230599;28;20281;-79
2023/05/20 06:08:04;;;;;;;7.50;6.83;;;12.40;68.90;;;;;;6232588;28;20234;-81
2023/05/20 06:11:07;;;;;;;7.53;6.93;;;12.50;68.30;;;;;;6231376;28;20242;-80
2023/05/20 06:14:11;;;;;;;7.97;7.37;;;12.60;68.20;;;;;;6219947;28;20480;-80
2023/05/20 06:17:15;;;;;;;8.17;7.53;;;12.60;68.00;;;;;;6225820;28;20313;-80
2023/05/20 06:20:18;;;;;;;7.43;6.90;;;12.60;68.20;;;;;;6225370;28;20315;-81
2023/05/20 06:23:21;;;;;;;7.47;6.73;;;12.50;68.30;;;;;;6220529;28;20742;-81
2023/05/20 06:26:25;;;;;;;6.83;6.27;;;12.50;68.40;;;;;;6228795;28;20238;-81
2023/05/20 06:29:29;;;;;;;7.20;6.70;;;12.50;68.50;;;;;;6227226;28;20239;-80
2023/05/20 06:32:33;;;;;;;8.27;7.33;;;12.50;68.70;;;;;;6231586;28;20838;-79
2023/05/20 06:35:36;;;;;;;7.10;6.63;;;12.50;68.50;;;;;;6235327;28;20234;-80
2023/05/20 06:38:39;;;;;;;7.37;6.57;;;12.70;68.50;;;;;;6235014;28;20250;-76
2023/05/20 06:41:43;;;;;;;7.93;7.20;;;12.80;68.20;;;;;;6227908;28;20238;-76
2023/05/20 06:44:47;;;;;;;7.60;6.90;;;12.90;68.00;;;;;;6224591;28;20235;-80
2023/05/20 06:47:52;;;;;;;7.67;6.97;;;12.90;67.80;;;;;;6235951;28;20859;-81
2023/05/20 06:50:56;;;;;;;6.73;6.13;;;12.90;67.90;;;;;;6225336;28;20243;-80
2023/05/20 06:53:59;;;;;;;7.07;6.60;;;12.90;68.00;;;;;;6217275;28;20757;-77
2023/05/20 06:57:02;;;;;;;7.83;7.23;;;12.90;68.30;;;;;;6236213;28;20285;-80
2023/05/20 07:00:08;;;;;;;6.67;6.30;;;13.00;67.80;;;;;;6246592;28;20235;-77
2023/05/20 07:03:11;;;;;;;7.77;7.03;;;13.10;67.70;;;;;;6241257;28;20269;-79
2023/05/20 07:06:14;;;;;;;7.97;7.20;;;13.10;67.50;;;;;;6228759;28;20242;-79
2023/05/20 07:09:17;;;;;;;7.40;6.70;;;13.20;67.20;;;;;;6232514;28;20614;-80
2023/05/20 07:12:20;;;;;;;8.03;7.33;;;13.30;67.50;;;;;;6235010;28;20280;-80
2023/05/20 07:15:25;;;;;;;7.20;6.70;;;13.50;66.90;;;;;;6224344;28;20288;-79
2023/05/20 07:18:29;;;;;;;7.37;6.77;;;13.70;66.50;;;;;;6233686;28;20244;-79
2023/05/20 07:21:32;;;;;;;7.37;6.67;;;13.70;66.30;;;;;;6226544;28;20250;-79
2023/05/20 07:24:35;;;;;;;6.83;6.33;;;13.70;66.30;;;;;;6220208;28;20309;-78
2023/05/20 07:27:39;;;;;;;7.07;6.47;;;13.80;66.30;;;;;;6219807;28;20230;-79
2023/05/20 07:30:45;;;;;;;7.50;6.90;;;13.80;65.80;;;;;;6230289;28;20296;-79
2023/05/20 07:33:48;;;;;;;7.30;6.70;;;13.90;65.90;;;;;;6224113;28;20231;-79
2023/05/20 07:36:52;;;;;;;6.73;6.13;;;13.90;65.60;;;;;;6225620;28;20434;-78
2023/05/20 07:39:55;;;;;;;8.10;6.53;;;13.90;65.60;;;;;;6237443;28;20285;-79
2023/05/20 07:42:58;;;;;;;10.23;6.50;;;14.00;65.30;;;;;;6231406;28;20322;-79
2023/05/20 07:46:04;;;;;;;6.83;6.33;;;14.10;65.30;;;;;;6230817;28;20350;-79
2023/05/20 07:49:07;;;;;;;6.97;6.40;;;14.30;65.50;;;;;;6238132;28;20231;-81
2023/05/20 07:52:11;;;;;;;7.73;7.03;;;14.50;64.60;;;;;;6234176;28;20845;-83
2023/05/20 07:55:14;;;;;;;7.37;6.80;;;14.60;64.00;;;;;;6227567;28;20239;-82
2023/05/20 07:58:17;;;;;;;6.93;6.33;;;14.60;63.70;;;;;;6235152;28;20666;-84
2023/05/20 08:01:22;;;;;;;7.03;6.53;;;14.90;63.70;;;;;;6229676;28;20235;-83
2023/05/20 08:04:25;;;;;;;6.00;5.60;;;15.00;62.80;;;;;;6238198;28;20246;-82
2023/05/20 08:07:29;;;;;;;7.17;6.67;;;15.10;63.20;;;;;;6248670;28;20296;-83
2023/05/20 08:10:32;;;;;;;6.40;6.00;;;15.30;62.50;;;;;;6239534;28;20713;-83
2023/05/20 08:13:36;;;;;;;6.70;5.93;;;15.50;62.20;;;;;;6251652;28;20246;-84
2023/05/20 08:16:42;;;;;;;6.50;6.07;;;15.60;62.60;;;;;;6252847;28;20241;-85
2023/05/20 08:19:45;;;;;;;6.70;6.17;;;15.60;61.90;;;;;;6261949;28;20231;-85
2023/05/20 08:22:49;;;;;;;6.63;6.13;;;15.60;61.90;;;;;;6256871;28;20232;-83
2023/05/20 08:25:52;;;;;;;6.90;6.10;;;15.80;62.10;;;;;;6275258;28;20225;-82
2023/05/20 08:28:55;;;;;;;6.73;6.13;;;16.00;61.30;;;;;;6270992;28;20238;-80
2023/05/20 08:31:59;;;;;;;6.53;6.03;;;16.20;60.80;;;;;;6269561;28;20222;-79
2023/05/20 08:35:03;;;;;;;6.43;6.13;;;16.10;60.30;;;;;;6267333;28;20238;-79
2023/05/20 08:38:06;;;;;;;6.53;6.10;;;16.20;60.50;;;;;;6268932;28;20231;-76
2023/05/20 08:41:09;;;;;;;6.73;6.23;;;16.00;60.80;;;;;;6269336;28;20242;-81
2023/05/20 08:44:13;;;;;;;6.93;6.40;;;16.10;60.50;;;;;;6271516;28;20257;-80
2023/05/20 08:47:17;;;;;;;6.70;6.30;;;16.20;60.50;;;;;;6264314;28;20242;-81
2023/05/20 08:50:21;;;;;;;7.93;7.17;;;16.20;60.40;;;;;;6248435;28;20241;-84
2023/05/20 08:53:24;;;;;;;8.43;6.60;;;16.10;60.60;;;;;;6231401;28;20301;-83
2023/05/20 08:56:27;;;;;;;6.30;5.90;;;16.10;60.60;;;;;;6249458;28;20235;-85
2023/05/20 08:59:33;;;;;;;6.83;6.37;;;16.20;61.00;;;;;;6234496;28;20236;-82
2023/05/20 09:02:38;;;;;;;7.33;6.83;;;16.20;60.20;;;;;;6239233;28;20247;-82
2023/05/20 09:05:41;;;;;;;6.50;6.00;;;16.20;60.30;;;;;;6230605;28;20234;-82
2023/05/20 09:08:45;;;;;;;7.60;6.70;;;16.10;60.90;;;;;;6225528;28;20321;-84
2023/05/20 09:11:48;;;;;;;8.87;6.60;;;16.00;60.90;;;;;;6226218;28;20235;-85
2023/05/20 09:14:56;;;;;;;6.60;6.03;;;16.00;61.00;;;;;;6212405;28;20602;-84
2023/05/20 09:18:02;;;;;;;6.83;6.27;;;16.00;61.20;;;;;;6244477;28;20234;-85
2023/05/20 09:21:06;;;;;;;6.67;6.17;;;15.80;61.50;;;;;;6244371;28;20231;-84
2023/05/20 09:24:10;;;;;;;6.30;5.90;;;16.00;61.30;;;;;;6246418;28;20235;-86
2023/05/20 09:27:13;;;;;;;6.50;6.03;;;16.10;61.10;;;;;;6238606;28;20781;-84
2023/05/20 09:30:19;;;;;;;6.23;5.93;;;16.10;61.20;;;;;;6270217;28;20223;-85
2023/05/20 09:33:28;;;;;;;6.67;6.13;;;16.10;61.10;;;;;;6267704;28;20235;-83
2023/05/20 09:36:34;;;;;;;8.97;8.27;;;16.30;61.30;;;;;;6268335;28;20227;-83
2023/05/20 09:39:49;;;;;;;8.30;7.60;;;16.40;60.70;;;;;;6266062;28;20312;-85
2023/05/20 09:42:55;;;;;;;8.27;7.47;;;16.40;60.60;;;;;;6267066;28;20223;-85
2023/05/20 09:45:59;;;;;;;7.70;7.20;;;16.40;60.70;;;;;;6263750;28;20261;-80
2023/05/20 09:49:05;;;;;;;9.07;8.37;;;16.40;60.90;;;;;;6255078;28;20243;-82
2023/05/20 09:52:09;;;;;;;8.70;8.00;;;16.60;60.50;;;;;;6253994;28;20266;-83
2023/05/20 09:55:12;;;;;;;8.40;7.80;;;16.70;60.40;;;;;;6254591;28;20219;-83
2023/05/20 09:58:17;;;;;;;10.83;9.03;;;16.80;60.50;;;;;;6246633;28;20293;-82
2023/05/20 10:01:21;;;;;;;9.83;8.93;;;16.80;59.60;;;;;;6239025;28;20311;-84
2023/05/20 10:04:27;;;;;;;9.33;8.63;;;16.80;59.90;;;;;;6243961;28;20245;-83
2023/05/20 10:07:55;;;;;;;10.07;9.17;;;16.80;59.80;;;;;;6238935;28;20226;-80
2023/05/20 10:11:11;;;;;;;9.30;8.53;;;16.70;59.80;;;;;;6242736;28;20238;-85
2023/05/20 10:14:28;;;;;;;10.53;8.87;;;16.70;60.40;;;;;;6224171;28;20259;-83
2023/05/20 10:17:44;;;;;;;10.20;9.40;;;16.70;60.00;;;;;;6237984;28;20245;-87
2023/05/20 10:20:50;;;;;;;10.03;9.10;;;16.60;60.30;;;;;;6223651;28;20298;-84
2023/05/20 10:23:54;;;;;;;9.87;8.50;;;16.60;59.80;;;;;;6243605;28;20235;-84
2023/05/20 10:26:58;;;;;;;9.63;8.93;;;16.60;60.40;;;;;;6235339;28;20247;-83
2023/05/20 10:30:02;;;;;;;9.33;8.63;;;16.60;60.10;;;;;;6249406;28;20709;-85
2023/05/20 10:33:06;;;;;;;9.27;8.43;;;16.60;60.10;;;;;;6232834;28;20242;-83
2023/05/20 10:36:25;;;;;;;9.23;8.53;;;16.70;60.40;;;;;;6219548;28;20299;-85
2023/05/20 10:39:30;;;;;;;8.63;7.93;;;16.90;60.50;;;;;;6244299;28;20238;-86
2023/05/20 10:42:33;;;;;;;10.93;10.03;;;17.00;59.70;;;;;;6245274;28;20247;-85
2023/05/20 10:45:48;;;;;;;10.03;9.23;;;17.10;59.30;;;;;;6239766;28;20239;-83
2023/05/20 10:48:52;;;;;;;9.03;8.33;;;17.20;59.40;;;;;;6225805;28;20246;-86
2023/05/20 10:51:59;;;;;;;8.73;8.03;;;17.80;58.90;;;;;;6245753;28;20253;-85
2023/05/20 10:55:03;;;;;;;8.93;8.13;;;18.30;58.20;;;;;;6242105;28;20288;-86
2023/05/20 10:58:09;;;;;;;8.13;7.53;;;18.50;57.60;;;;;;6220232;28;20249;-80
2023/05/20 11:01:13;;;;;;;9.83;9.03;;;18.70;56.70;;;;;;6242317;28;20717;-86
2023/05/20 11:04:18;;;;;;;9.13;8.43;;;18.80;56.10;;;;;;6242877;28;20237;-86
2023/05/20 11:07:30;;;;;;;10.60;9.20;;;18.60;56.20;;;;;;6243101;28;20234;-85
2023/05/20 11:10:36;;;;;;;10.17;9.27;;;18.50;56.40;;;;;;6236619;28;20598;-87
2023/05/20 11:13:40;;;;;;;9.27;8.50;;;18.50;56.20;;;;;;6241404;28;20238;-86
2023/05/20 11:16:47;;;;;;;9.87;9.13;;;18.50;56.60;;;;;;6229699;28;20238;-85
2023/05/20 11:19:50;;;;;;;10.10;9.20;;;18.80;56.50;;;;;;6234239;28;20289;-84
2023/05/20 11:22:56;;;;;;;11.63;9.20;;;19.10;56.00;;;;;;6241742;28;20698;-84
2023/05/20 11:25:59;;;;;;;9.63;8.80;;;19.30;55.50;;;;;;6245691;28;20698;-83
2023/05/20 11:29:03;;;;;;;9.27;8.47;;;19.30;55.10;;;;;;6245128;28;20234;-86
2023/05/20 11:32:08;;;;;;;9.30;8.60;;;19.20;55.40;;;;;;6236862;28;20319;-86
2023/05/20 11:35:22;;;;;;;9.77;8.50;;;19.30;55.30;;;;;;6228466;28;20429;-85
2023/05/20 11:38:27;;;;;;;8.90;8.17;;;19.40;55.60;;;;;;6228914;28;20237;-86
2023/05/20 11:41:30;;;;;;;9.47;8.63;;;19.30;55.40;;;;;;6220174;28;20235;-85
2023/05/20 11:44:34;;;;;;;9.10;8.33;;;19.30;55.30;;;;;;6243041;28;20230;-84
2023/05/20 11:47:37;;;;;;;9.70;8.80;;;19.20;55.50;;;;;;6232072;28;20235;-79
2023/05/20 11:50:44;;;;;;;12.73;11.00;;;18.90;56.10;;;;;;6242666;28;20234;-84
2023/05/20 11:53:48;;;;;;;10.63;9.60;;;19.00;56.40;;;;;;6241066;28;20235;-81
2023/05/20 11:56:53;;;;;;;10.97;8.57;;;19.30;55.50;;;;;;6234026;28;20234;-81
2023/05/20 11:59:57;;;;;;;12.87;11.57;;;19.40;55.10;;;;;;6232392;28;20239;-82
2023/05/20 12:03:00;;;;;;;9.63;8.93;;;19.40;55.40;;;;;;6230604;28;20238;-82
2023/05/20 12:06:03;;;;;;;9.23;8.33;;;19.40;55.30;;;;;;6233209;28;20832;-79
2023/05/20 12:09:09;;;;;;;10.50;9.10;;;19.50;55.10;;;;;;6230909;28;20238;-82
2023/05/20 12:12:12;;;;;;;10.27;9.40;;;19.60;54.70;;;;;;6246568;28;20248;-82
2023/05/20 12:15:16;;;;;;;10.27;9.37;;;19.70;54.80;;;;;;6239771;28;20230;-83
2023/05/20 12:18:19;;;;;;;11.00;9.87;;;19.90;54.80;;;;;;6228178;28;20235;-84
2023/05/20 12:21:22;;;;;;;9.23;8.63;;;20.10;54.40;;;;;;6231600;28;20610;-85
2023/05/20 12:24:27;;;;;;;9.30;8.40;;;20.00;54.70;;;;;;6233813;28;20736;-83
2023/05/20 12:27:32;;;;;;;10.17;9.23;;;20.20;54.80;;;;;;6231403;28;20246;-83
2023/05/20 12:30:36;;;;;;;9.70;8.90;;;20.30;54.30;;;;;;6223406;28;20829;-85
2023/05/20 12:33:39;;;;;;;10.27;9.30;;;20.30;54.30;;;;;;6228900;28;20238;-83
2023/05/20 12:36:42;;;;;;;9.67;8.67;;;20.50;54.10;;;;;;6233416;28;20234;-85
2023/05/20 12:39:47;;;;;;;8.67;8.07;;;20.60;53.80;;;;;;6238827;28;20309;-83
2023/05/20 12:42:50;;;;;;;9.83;9.17;;;20.70;53.90;;;;;;6240996;28;20828;-82
2023/05/20 12:45:54;;;;;;;10.53;9.30;;;20.90;53.10;;;;;;6247735;28;20250;-83
2023/05/20 12:48:57;;;;;;;10.40;9.37;;;20.60;53.30;;;;;;6241601;28;20238;-84
2023/05/20 12:52:00;;;;;;;9.13;8.23;;;20.60;53.50;;;;;;6244993;28;20243;-84
2023/05/20 12:55:13;;;;;;;9.83;9.03;;;20.30;53.60;;;;;;6233172;28;20231;-85
2023/05/20 12:58:16;;;;;;;13.70;8.87;;;20.00;54.00;;;;;;6248289;28;20238;-84
2023/05/20 13:01:19;;;;;;;8.93;8.23;;;19.90;54.70;;;;;;6243367;28;20360;-84
2023/05/20 13:04:23;;;;;;;10.17;9.30;;;19.60;55.50;;;;;;6225722;28;20267;-85
2023/05/20 13:07:26;;;;;;;11.10;10.17;;;19.70;54.80;;;;;;6240935;28;20234;-83
2023/05/20 13:10:31;;;;;;;10.07;9.13;;;19.50;55.40;;;;;;6232703;28;20231;-85
2023/05/20 13:13:34;;;;;;;9.40;8.23;;;19.70;55.70;;;;;;6249112;28;20341;-85
2023/05/20 13:16:38;;;;;;;9.57;8.93;;;19.70;55.80;;;;;;6242239;28;20304;-84
2023/05/20 13:19:41;;;;;;;9.63;8.77;;;19.70;55.40;;;;;;6251291;28;20250;-83
2023/05/20 13:22:44;;;;;;;9.73;9.03;;;19.60;55.40;;;;;;6219997;28;20249;-83
2023/05/20 13:25:49;;;;;;;9.57;8.93;;;19.50;55.20;;;;;;6232281;28;20338;-82
2023/05/20 13:28:52;;;;;;;9.27;8.53;;;19.30;56.00;;;;;;6229586;28;20442;-84
2023/05/20 13:31:55;;;;;;;10.60;9.40;;;19.10;56.50;;;;;;6219076;28;20247;-82
2023/05/20 13:34:59;;;;;;;9.83;8.20;;;19.30;56.40;;;;;;6236870;28;20246;-83
2023/05/20 13:38:02;;;;;;;8.83;8.23;;;19.50;56.20;;;;;;6235222;28;20293;-84
2023/05/20 13:41:07;;;;;;;9.30;8.30;;;19.70;55.70;;;;;;6235012;28;20450;-81
2023/05/20 13:44:10;;;;;;;10.13;9.07;;;19.80;55.70;;;;;;6229289;28;20247;-80
2023/05/20 13:47:13;;;;;;;8.87;8.07;;;19.90;55.40;;;;;;6222897;28;20239;-82
2023/05/20 13:50:16;;;;;;;9.40;8.63;;;20.00;55.20;;;;;;6235407;28;20850;-78
2023/05/20 13:53:19;;;;;;;9.73;8.97;;;20.10;55.00;;;;;;6236536;28;20258;-80
2023/05/20 13:56:24;;;;;;;9.50;8.50;;;20.00;55.30;;;;;;6234658;28;20231;-80
2023/05/20 13:59:27;;;;;;;9.03;8.53;;;20.30;55.30;;;;;;6240126;28;20246;-79
2023/05/20 14:02:31;;;;;;;9.53;8.10;;;20.30;54.60;;;;;;6232515;28;20254;-81
2023/05/20 14:05:34;;;;;;;8.67;8.03;;;20.30;54.70;;;;;;6234382;28;20258;-81
2023/05/20 14:08:37;;;;;;;8.67;7.87;;;20.50;54.60;;;;;;6241799;28;20261;-82
2023/05/20 14:11:42;;;;;;;8.97;8.37;;;20.60;54.40;;;;;;6236951;28;20329;-79
2023/05/20 14:14:45;;;;;;;8.13;7.63;;;20.40;54.40;;;;;;6236536;28;20808;-80
2023/05/20 14:17:48;;;;;;;8.10;7.60;;;20.50;54.60;;;;;;6233087;28;20332;-77
2023/05/20 14:20:52;;;;;;;9.77;8.93;;;20.60;54.40;;;;;;6241247;28;20380;-80
2023/05/20 14:23:55;;;;;;;8.63;7.77;;;20.60;54.20;;;;;;6248656;28;20373;-77
2023/05/20 14:26:59;;;;;;;8.97;8.37;;;20.60;54.50;;;;;;6239803;28;20697;-81
2023/05/20 14:30:03;;;;;;;8.00;7.50;;;20.70;54.60;;;;;;6231627;28;20234;-80
2023/05/20 14:33:06;;;;;;;8.93;8.20;;;20.70;54.50;;;;;;6244352;28;20238;-79
2023/05/20 14:36:12;;;;;;;8.60;8.00;;;20.80;54.10;;;;;;6237164;28;20231;-79
2023/05/20 14:39:15;;;;;;;7.83;7.33;;;20.80;53.90;;;;;;6231367;28;20656;-81
2023/05/20 14:42:20;;;;;;;8.43;7.83;;;20.80;53.90;;;;;;6230798;28;20250;-81
2023/05/20 14:45:23;;;;;;;7.97;7.47;;;20.90;54.00;;;;;;6241207;28;20226;-82
2023/05/20 14:48:26;;;;;;;8.43;7.63;;;20.90;54.00;;;;;;6244250;28;20234;-77
2023/05/20 14:51:30;;;;;;;8.13;7.53;;;20.90;53.90;;;;;;6242511;28;20289;-76
2023/05/20 14:54:33;;;;;;;7.50;7.10;;;21.00;54.00;;;;;;6230558;28;20649;-77
2023/05/20 14:57:38;;;;;;;8.67;7.87;;;21.10;53.90;;;;;;6232046;28;20226;-79
2023/05/20 15:00:42;;;;;;;8.57;7.77;;;21.10;53.30;;;;;;6243891;28;20285;-78
2023/05/20 15:03:45;;;;;;;8.57;7.87;;;21.10;53.50;;;;;;6231683;28;20238;-79
2023/05/20 15:06:49;;;;;;;8.20;7.50;;;21.10;53.40;;;;;;6233831;28;20235;-76
2023/05/20 15:09:52;;;;;;;7.57;7.07;;;21.00;53.80;;;;;;6238318;28;20321;-78
2023/05/20 15:12:57;;;;;;;7.57;7.07;;;21.10;53.90;;;;;;6231560;28;20301;-78
2023/05/20 15:16:00;;;;;;;8.17;7.53;;;21.30;53.60;;;;;;6238949;28;20242;-77
2023/05/20 15:19:03;;;;;;;8.37;7.63;;;21.60;53.30;;;;;;6227761;28;20317;-76
2023/05/20 15:22:06;;;;;;;8.00;7.50;;;21.50;53.60;;;;;;6238019;28;20234;-78
2023/05/20 15:25:09;;;;;;;7.30;6.90;;;21.40;53.40;;;;;;6230357;28;20226;-79
2023/05/20 15:28:18;;;;;;;8.70;7.93;;;21.40;53.60;;;;;;6224184;28;20368;-78
2023/05/20 15:31:21;;;;;;;8.17;7.57;;;21.50;53.40;;;;;;6228954;28;20604;-79
2023/05/20 15:34:24;;;;;;;7.90;7.40;;;21.40;53.60;;;;;;6233894;28;20371;-77
2023/05/20 15:37:27;;;;;;;7.70;7.17;;;21.10;54.00;;;;;;6229895;28;20235;-79
2023/05/20 15:40:31;;;;;;;8.13;7.57;;;21.10;54.50;;;;;;6245545;28;20308;-78
2023/05/20 15:43:35;;;;;;;8.70;8.03;;;21.30;54.20;;;;;;6222880;28;20320;-79
2023/05/20 15:46:38;;;;;;;8.03;7.33;;;21.20;54.40;;;;;;6228902;28;20230;-79
2023/05/20 15:49:42;;;;;;;7.80;7.17;;;21.10;54.70;;;;;;6215551;28;20241;-78
2023/05/20 15:52:45;;;;;;;7.43;7.07;;;21.10;54.80;;;;;;6236094;28;20243;-79
2023/05/20 15:55:48;;;;;;;7.90;7.50;;;21.10;54.70;;;;;;6236540;28;20238;-77
2023/05/20 15:58:52;;;;;;;8.03;7.40;;;21.10;54.90;;;;;;6237838;28;20243;-78